Time;durP1;ratioP1;P1;durP2;ratioP2;P2;SDS_P1;SDS_P2;PMS_P1;PMS_P2;Temp;Humidity;BMP_temperature;BMP_pressure;BME280_temperature;BME280_humidity;BME280_pressure;Samples;Min_cycle;Max_cycle;Signal;HPM_P1;HPM_P2
2024/02/23 00:01:10;;;;;;;17.53;16.63;;;;;;;;;;5018466;28;21063;-72
2024/02/23 00:03:37;;;;;;;17.27;16.47;;;;;;;;;;5021940;28;20472;-71
2024/02/23 00:06:05;;;;;;;16.93;16.13;;;;;;;;;;5022636;28;20511;-72
2024/02/23 00:08:34;;;;;;;16.90;16.10;;;;;;;;;;5015136;28;20479;-73
2024/02/23 00:11:01;;;;;;;16.50;15.70;;;;;;;;;;5022491;28;20465;-72
2024/02/23 00:13:29;;;;;;;16.90;16.10;;;;;;;;;;5018408;28;20548;-73
2024/02/23 00:15:56;;;;;;;16.13;15.43;;;;;;;;;;5026799;28;21086;-72
2024/02/23 00:18:23;;;;;;;16.27;15.57;;;;;;;;;;5018784;28;20492;-72
2024/02/23 00:20:50;;;;;;;16.10;15.40;;;;;;;;;;5026426;28;20465;-71
2024/02/23 00:23:19;;;;;;;16.10;15.40;;;;;;;;;;5020453;28;20470;-71
2024/02/23 00:25:47;;;;;;;15.93;15.23;;;;;;;;;;5026997;28;20469;-71
2024/02/23 00:28:14;;;;;;;16.10;15.40;;;;;;;;;;5028914;28;20566;-71
2024/02/23 00:30:41;;;;;;;16.10;15.40;;;;;;;;;;5022937;28;20476;-71
2024/02/23 00:33:09;;;;;;;15.90;15.20;;;;;;;;;;5020196;28;20466;-71
2024/02/23 00:35:37;;;;;;;16.20;15.50;;;;;;;;;;5025175;28;20500;-71
2024/02/23 00:38:05;;;;;;;15.90;15.20;;;;;;;;;;5027354;28;20468;-71
2024/02/23 00:40:32;;;;;;;16.30;15.60;;;;;;;;;;5027099;28;20514;-73
2024/02/23 00:43:01;;;;;;;16.40;15.70;;;;;;;;;;5020050;28;20564;-72
2024/02/23 00:45:28;;;;;;;15.90;15.20;;;;;;;;;;5018622;28;20531;-72
2024/02/23 00:47:56;;;;;;;16.00;15.30;;;;;;;;;;5019962;28;20492;-72
2024/02/23 00:50:25;;;;;;;15.47;14.87;;;;;;;;;;5023212;28;20465;-72
2024/02/23 00:52:53;;;;;;;15.50;14.83;;;;;;;;;;5020279;28;20471;-72
2024/02/23 00:55:20;;;;;;;16.40;15.70;;;;;;;;;;5022028;28;21108;-72
2024/02/23 00:57:47;;;;;;;14.93;14.33;;;;;;;;;;5027058;28;20461;-72
2024/02/23 01:00:16;;;;;;;14.77;14.17;;;;;;;;;;5018315;28;20495;-72
2024/02/23 01:02:43;;;;;;;14.90;14.30;;;;;;;;;;4992515;28;21461;-72
2024/02/23 01:05:10;;;;;;;14.80;14.20;;;;;;;;;;4993970;28;20473;-72
2024/02/23 01:07:38;;;;;;;14.37;13.87;;;;;;;;;;4991778;28;20469;-71
2024/02/23 01:10:05;;;;;;;13.53;13.03;;;;;;;;;;4991785;28;20471;-71
2024/02/23 01:12:32;;;;;;;13.10;12.70;;;;;;;;;;4992080;28;20551;-72
2024/02/23 01:14:59;;;;;;;12.47;12.07;;;;;;;;;;4992996;28;21079;-72
2024/02/23 01:17:28;;;;;;;12.67;12.27;;;;;;;;;;4992822;28;22484;-71
2024/02/23 01:19:55;;;;;;;12.20;11.80;;;;;;;;;;4992985;28;20874;-72
2024/02/23 01:22:22;;;;;;;11.50;11.20;;;;;;;;;;4996248;28;20669;-72
2024/02/23 01:24:50;;;;;;;11.90;11.60;;;;;;;;;;4995802;28;20965;-72
2024/02/23 01:27:18;;;;;;;11.70;11.40;;;;;;;;;;4996595;28;20821;-72
2024/02/23 01:29:45;;;;;;;11.33;11.03;;;;;;;;;;4996399;28;20510;-71
2024/02/23 01:32:12;;;;;;;11.60;11.30;;;;;;;;;;4996947;28;20467;-72
2024/02/23 01:34:41;;;;;;;11.27;10.97;;;;;;;;;;4996367;28;20492;-72
2024/02/23 01:37:08;;;;;;;11.10;10.80;;;;;;;;;;4994810;28;20460;-73
2024/02/23 01:39:36;;;;;;;11.47;11.17;;;;;;;;;;4995324;28;20467;-73
2024/02/23 01:42:03;;;;;;;11.70;11.40;;;;;;;;;;4996116;28;21267;-71
2024/02/23 01:44:30;;;;;;;11.83;11.53;;;;;;;;;;4994607;28;20476;-72
2024/02/23 01:46:57;;;;;;;10.87;10.57;;;;;;;;;;4995613;28;20473;-72
2024/02/23 01:49:29;;;;;;;11.20;10.90;;;;;;;;;;4995966;28;20796;-71
2024/02/23 01:51:58;;;;;;;11.30;11.00;;;;;;;;;;4996276;28;20535;-73
2024/02/23 01:54:26;;;;;;;11.10;10.80;;;;;;;;;;4995003;28;20460;-71
2024/02/23 01:56:53;;;;;;;11.10;10.80;;;;;;;;;;4994646;28;20481;-72
2024/02/23 01:59:20;;;;;;;11.17;10.87;;;;;;;;;;4994583;28;20487;-72
2024/02/23 02:01:48;;;;;;;11.70;11.40;;;;;;;;;;5022139;28;20485;-72
2024/02/23 02:04:15;;;;;;;11.50;11.20;;;;;;;;;;5026121;28;20835;-71
2024/02/23 02:06:42;;;;;;;11.27;10.97;;;;;;;;;;5025665;28;20461;-71
2024/02/23 02:09:10;;;;;;;11.50;11.20;;;;;;;;;;5028876;28;20491;-73
2024/02/23 02:11:47;;;;;;;11.40;11.10;;;;;;;;;;5030263;28;20461;-71
2024/02/23 02:14:14;;;;;;;11.70;11.40;;;;;;;;;;5030247;28;20552;-72
2024/02/23 02:16:43;;;;;;;11.50;11.20;;;;;;;;;;5028135;28;20503;-72
2024/02/23 02:19:11;;;;;;;11.53;11.23;;;;;;;;;;5025946;28;20465;-71
2024/02/23 02:21:38;;;;;;;11.60;11.30;;;;;;;;;;5026383;28;20576;-72
2024/02/23 02:24:06;;;;;;;12.03;11.73;;;;;;;;;;5023040;28;20959;-71
2024/02/23 02:26:34;;;;;;;11.80;11.50;;;;;;;;;;5030221;28;20453;-71
2024/02/23 02:29:02;;;;;;;11.70;11.40;;;;;;;;;;5029991;28;20469;-73
2024/02/23 02:31:29;;;;;;;12.13;11.83;;;;;;;;;;5026220;28;20460;-71
2024/02/23 02:33:56;;;;;;;11.57;11.27;;;;;;;;;;5020456;28;20461;-72
2024/02/23 02:36:23;;;;;;;11.83;11.53;;;;;;;;;;5022486;28;20493;-70
2024/02/23 02:38:50;;;;;;;11.37;11.07;;;;;;;;;;5028466;28;20478;-73
2024/02/23 02:41:19;;;;;;;12.30;11.90;;;;;;;;;;5026509;28;20539;-73
2024/02/23 02:43:48;;;;;;;11.83;11.53;;;;;;;;;;5021405;28;20468;-72
2024/02/23 02:46:15;;;;;;;12.30;11.90;;;;;;;;;;5028390;28;20918;-71
2024/02/23 02:48:42;;;;;;;11.40;11.10;;;;;;;;;;5029949;28;20496;-70
2024/02/23 02:51:09;;;;;;;12.00;11.70;;;;;;;;;;5022350;28;20465;-72
2024/02/23 02:53:37;;;;;;;12.17;11.87;;;;;;;;;;5019024;28;20469;-71
2024/02/23 02:56:07;;;;;;;11.50;11.20;;;;;;;;;;5029338;28;20481;-71
2024/02/23 02:58:35;;;;;;;11.87;11.57;;;;;;;;;;5023124;28;20504;-72
2024/02/23 03:01:03;;;;;;;11.73;11.43;;;;;;;;;;5025656;28;20481;-73
2024/02/23 03:03:31;;;;;;;12.47;12.07;;;;;;;;;;5029539;28;20461;-72
2024/02/23 03:05:58;;;;;;;12.40;12.00;;;;;;;;;;5022680;28;20469;-72
2024/02/23 03:08:26;;;;;;;12.30;11.90;;;;;;;;;;5026008;28;20465;-72
2024/02/23 03:10:53;;;;;;;12.20;11.83;;;;;;;;;;5022759;28;20473;-73
2024/02/23 03:13:20;;;;;;;11.60;11.30;;;;;;;;;;5022053;28;20936;-73
2024/02/23 03:15:47;;;;;;;12.03;11.73;;;;;;;;;;5029156;28;20531;-72
2024/02/23 03:18:16;;;;;;;12.10;11.80;;;;;;;;;;5021179;28;20457;-73
2024/02/23 03:20:44;;;;;;;12.37;11.97;;;;;;;;;;5023248;28;20854;-73
2024/02/23 03:23:11;;;;;;;12.57;12.17;;;;;;;;;;5026348;28;20644;-72
2024/02/23 03:25:39;;;;;;;12.70;12.30;;;;;;;;;;5020816;28;20461;-71
2024/02/23 03:28:06;;;;;;;12.63;12.23;;;;;;;;;;5028955;28;20564;-71
2024/02/23 03:30:33;;;;;;;12.70;12.30;;;;;;;;;;5017773;28;20463;-73
2024/02/23 03:33:00;;;;;;;12.87;12.47;;;;;;;;;;5028519;28;20468;-70
2024/02/23 03:35:29;;;;;;;12.80;12.40;;;;;;;;;;5027912;28;21035;-73
2024/02/23 03:37:56;;;;;;;13.27;12.87;;;;;;;;;;5025157;28;20460;-72
2024/02/23 03:40:23;;;;;;;13.03;12.63;;;;;;;;;;5028821;28;20479;-73
2024/02/23 03:42:50;;;;;;;13.20;12.80;;;;;;;;;;5024954;28;20455;-70
2024/02/23 03:45:17;;;;;;;12.97;12.57;;;;;;;;;;5023542;28;20990;-73
2024/02/23 03:47:45;;;;;;;13.30;12.90;;;;;;;;;;5022778;28;20596;-71
2024/02/23 03:50:12;;;;;;;13.10;12.70;;;;;;;;;;5023907;28;20456;-73
2024/02/23 03:52:42;;;;;;;13.20;12.80;;;;;;;;;;5020142;28;20768;-71
2024/02/23 03:55:10;;;;;;;13.57;13.17;;;;;;;;;;5023059;28;20979;-72
2024/02/23 03:57:38;;;;;;;13.30;12.90;;;;;;;;;;5024188;28;20494;-72
2024/02/23 04:00:07;;;;;;;13.40;13.00;;;;;;;;;;5014560;28;20458;-72
2024/02/23 04:02:36;;;;;;;13.40;13.00;;;;;;;;;;5024660;28;20458;-72
2024/02/23 04:05:03;;;;;;;13.33;12.93;;;;;;;;;;5025532;28;20871;-73
2024/02/23 04:07:30;;;;;;;13.13;12.73;;;;;;;;;;5026583;28;20468;-72
2024/02/23 04:09:58;;;;;;;13.00;12.60;;;;;;;;;;5019524;28;20868;-71
2024/02/23 04:12:26;;;;;;;13.00;12.60;;;;;;;;;;5023026;28;20471;-71
2024/02/23 04:14:53;;;;;;;12.93;12.53;;;;;;;;;;5027762;28;20461;-72
2024/02/23 04:17:20;;;;;;;12.97;12.57;;;;;;;;;;5028048;28;20489;-73
2024/02/23 04:19:47;;;;;;;12.77;12.37;;;;;;;;;;5022390;28;20468;-73
2024/02/23 04:22:14;;;;;;;12.87;12.47;;;;;;;;;;5022709;28;20483;-73
2024/02/23 04:24:42;;;;;;;12.83;12.43;;;;;;;;;;5018647;28;20948;-73
2024/02/23 04:27:10;;;;;;;12.73;12.33;;;;;;;;;;5028088;28;20453;-73
2024/02/23 04:29:37;;;;;;;13.03;12.63;;;;;;;;;;5022448;28;20472;-73
2024/02/23 04:32:06;;;;;;;13.10;12.70;;;;;;;;;;5023922;28;20479;-73
2024/02/23 04:34:33;;;;;;;13.03;12.63;;;;;;;;;;5027619;28;20461;-72
2024/02/23 04:37:00;;;;;;;13.70;13.20;;;;;;;;;;5026984;28;20499;-71
2024/02/23 04:39:27;;;;;;;13.13;12.73;;;;;;;;;;5023393;28;20461;-73
2024/02/23 04:41:54;;;;;;;13.43;13.03;;;;;;;;;;5027629;28;20458;-73
2024/02/23 04:44:23;;;;;;;13.63;13.13;;;;;;;;;;5022917;28;20564;-73
2024/02/23 04:46:50;;;;;;;13.80;13.30;;;;;;;;;;5027195;28;20449;-73
2024/02/23 04:49:18;;;;;;;14.10;13.60;;;;;;;;;;5024814;28;20547;-73
2024/02/23 04:51:45;;;;;;;14.30;13.80;;;;;;;;;;5025106;28;20785;-72
2024/02/23 04:54:13;;;;;;;14.20;13.70;;;;;;;;;;5028133;28;20919;-73
2024/02/23 04:56:41;;;;;;;13.90;13.40;;;;;;;;;;5024739;28;20500;-73
2024/02/23 04:59:08;;;;;;;14.10;13.60;;;;;;;;;;5031832;28;20461;-72
2024/02/23 05:01:38;;;;;;;14.03;13.53;;;;;;;;;;5029596;28;21014;-71
2024/02/23 05:04:05;;;;;;;13.23;12.83;;;;;;;;;;5017247;28;20462;-74
2024/02/23 05:06:33;;;;;;;14.10;13.60;;;;;;;;;;5017501;28;20483;-71
2024/02/23 05:09:00;;;;;;;14.13;13.63;;;;;;;;;;5017460;28;20461;-72
2024/02/23 05:11:27;;;;;;;14.30;13.80;;;;;;;;;;5023914;28;20942;-71
2024/02/23 05:13:54;;;;;;;14.30;13.80;;;;;;;;;;5024865;28;20468;-72
2024/02/23 05:16:22;;;;;;;14.20;13.70;;;;;;;;;;5028852;28;20488;-72
2024/02/23 05:18:50;;;;;;;14.17;13.67;;;;;;;;;;5025271;28;20476;-73
2024/02/23 05:21:17;;;;;;;14.40;13.90;;;;;;;;;;5028137;28;20452;-71
2024/02/23 05:23:46;;;;;;;14.20;13.70;;;;;;;;;;5028528;28;20464;-70
2024/02/23 05:26:13;;;;;;;14.40;13.90;;;;;;;;;;5025716;28;20481;-73
2024/02/23 05:28:40;;;;;;;14.40;13.90;;;;;;;;;;5027059;28;20801;-72
2024/02/23 05:31:07;;;;;;;14.70;14.20;;;;;;;;;;5018646;28;20980;-73
2024/02/23 05:33:35;;;;;;;14.50;14.00;;;;;;;;;;5028361;28;20835;-73
2024/02/23 05:36:05;;;;;;;14.13;13.63;;;;;;;;;;5019516;28;20576;-72
2024/02/23 05:38:32;;;;;;;14.60;14.10;;;;;;;;;;5024558;28;20465;-72
2024/02/23 05:40:59;;;;;;;14.73;14.23;;;;;;;;;;5019184;28;20477;-73
2024/02/23 05:43:26;;;;;;;14.73;14.23;;;;;;;;;;5028247;28;20465;-72
2024/02/23 05:45:54;;;;;;;15.40;14.80;;;;;;;;;;5029104;28;20932;-70
2024/02/23 05:48:21;;;;;;;15.50;14.90;;;;;;;;;;5028820;28;20481;-71
2024/02/23 05:50:48;;;;;;;14.90;14.37;;;;;;;;;;5022777;28;20497;-71
2024/02/23 05:53:17;;;;;;;14.50;14.00;;;;;;;;;;5028076;28;20473;-70
2024/02/23 05:55:44;;;;;;;14.83;14.33;;;;;;;;;;5026062;28;20476;-70
2024/02/23 05:58:13;;;;;;;14.60;14.10;;;;;;;;;;5023843;28;20465;-70
2024/02/23 06:00:40;;;;;;;14.83;14.33;;;;;;;;;;5028108;28;20516;-72
2024/02/23 06:03:07;;;;;;;14.63;14.13;;;;;;;;;;5024640;28;20472;-71
2024/02/23 06:05:34;;;;;;;14.40;13.90;;;;;;;;;;5024988;28;20465;-72
2024/02/23 06:08:02;;;;;;;14.50;14.00;;;;;;;;;;5027194;28;20461;-71
2024/02/23 06:10:31;;;;;;;14.40;13.90;;;;;;;;;;5022610;28;20468;-73
2024/02/23 06:12:59;;;;;;;14.43;13.93;;;;;;;;;;5022826;28;20464;-71
2024/02/23 06:15:26;;;;;;;14.80;14.30;;;;;;;;;;5018883;28;20469;-71
2024/02/23 06:17:54;;;;;;;14.90;14.40;;;;;;;;;;5026893;28;20493;-72
2024/02/23 06:20:21;;;;;;;14.80;14.30;;;;;;;;;;5021876;28;20543;-70
2024/02/23 06:22:49;;;;;;;14.87;14.37;;;;;;;;;;5028464;28;20458;-70
2024/02/23 06:25:17;;;;;;;14.67;14.17;;;;;;;;;;5028380;28;20469;-71
2024/02/23 06:27:45;;;;;;;14.77;14.27;;;;;;;;;;5023411;28;20472;-72
2024/02/23 06:30:12;;;;;;;14.87;14.37;;;;;;;;;;5022435;28;20472;-71
2024/02/23 06:32:40;;;;;;;14.73;14.23;;;;;;;;;;5022634;28;20475;-69
2024/02/23 06:35:07;;;;;;;14.10;13.60;;;;;;;;;;5020518;28;20659;-72
2024/02/23 06:37:34;;;;;;;13.67;13.27;;;;;;;;;;5020788;28;20498;-70
2024/02/23 06:40:02;;;;;;;13.73;13.33;;;;;;;;;;5018994;28;20458;-70
2024/02/23 06:42:29;;;;;;;14.10;13.60;;;;;;;;;;5025240;28;20465;-70
2024/02/23 06:44:57;;;;;;;14.07;13.57;;;;;;;;;;5021536;28;20553;-70
2024/02/23 06:47:25;;;;;;;14.10;13.60;;;;;;;;;;5027410;28;20481;-71
2024/02/23 06:49:53;;;;;;;14.17;13.67;;;;;;;;;;5022572;28;20869;-69
2024/02/23 06:52:21;;;;;;;14.30;13.80;;;;;;;;;;5023796;28;20543;-70
2024/02/23 06:54:48;;;;;;;13.77;13.37;;;;;;;;;;5018470;28;20907;-70
2024/02/23 06:57:15;;;;;;;13.53;13.13;;;;;;;;;;5025071;28;20853;-71
2024/02/23 06:59:42;;;;;;;14.30;13.80;;;;;;;;;;5016419;28;20962;-70
2024/02/23 07:02:12;;;;;;;14.20;13.70;;;;;;;;;;5021594;28;21074;-72
2024/02/23 07:04:39;;;;;;;13.90;13.40;;;;;;;;;;5017149;28;20473;-70
2024/02/23 07:07:08;;;;;;;14.07;13.57;;;;;;;;;;5025516;28;20460;-72
2024/02/23 07:09:35;;;;;;;13.70;13.30;;;;;;;;;;5023323;28;20581;-70
2024/02/23 07:12:03;;;;;;;14.30;13.80;;;;;;;;;;5024951;28;20562;-71
2024/02/23 07:14:30;;;;;;;14.30;13.80;;;;;;;;;;5023413;28;20469;-70
2024/02/23 07:16:57;;;;;;;14.10;13.60;;;;;;;;;;5021079;28;20533;-72
2024/02/23 07:19:26;;;;;;;14.33;13.83;;;;;;;;;;5024530;28;20561;-72
2024/02/23 07:21:53;;;;;;;14.30;13.80;;;;;;;;;;5025299;28;20470;-70
2024/02/23 07:24:20;;;;;;;14.47;13.97;;;;;;;;;;5026917;28;20963;-71
2024/02/23 07:26:48;;;;;;;14.30;13.80;;;;;;;;;;5015970;28;20470;-72
2024/02/23 07:29:16;;;;;;;14.40;13.90;;;;;;;;;;5025420;28;20567;-70
2024/02/23 07:31:43;;;;;;;13.90;13.40;;;;;;;;;;5015916;28;20461;-70
2024/02/23 07:34:11;;;;;;;14.20;13.70;;;;;;;;;;5022005;28;20542;-71
2024/02/23 07:36:40;;;;;;;14.00;13.50;;;;;;;;;;5014574;28;20678;-72
2024/02/23 07:39:07;;;;;;;14.30;13.80;;;;;;;;;;5021695;28;20449;-70
2024/02/23 07:41:34;;;;;;;14.30;13.80;;;;;;;;;;5020816;28;20543;-72
2024/02/23 07:44:01;;;;;;;13.97;13.47;;;;;;;;;;5023924;28;20974;-69
2024/02/23 07:46:28;;;;;;;13.97;13.47;;;;;;;;;;5022453;28;20472;-71
2024/02/23 07:48:56;;;;;;;14.50;14.00;;;;;;;;;;5016027;28;21000;-71
2024/02/23 07:51:23;;;;;;;14.50;14.00;;;;;;;;;;5016090;28;20503;-72
2024/02/23 07:53:52;;;;;;;14.17;13.67;;;;;;;;;;5013270;28;20800;-72
2024/02/23 07:56:19;;;;;;;14.60;14.10;;;;;;;;;;5009048;28;20484;-69
2024/02/23 07:58:47;;;;;;;13.83;13.37;;;;;;;;;;5012987;28;20552;-71
2024/02/23 08:01:15;;;;;;;14.40;13.90;;;;;;;;;;5014208;28;20494;-72
2024/02/23 08:03:43;;;;;;;14.10;13.60;;;;;;;;;;5015487;28;20458;-69
2024/02/23 08:06:10;;;;;;;14.20;13.70;;;;;;;;;;5011904;28;20469;-70
2024/02/23 08:08:37;;;;;;;14.43;13.93;;;;;;;;;;5014458;28;20822;-71
2024/02/23 08:11:06;;;;;;;14.50;14.00;;;;;;;;;;5014391;28;20474;-71
2024/02/23 08:13:33;;;;;;;13.93;13.43;;;;;;;;;;5011922;28;20881;-70
2024/02/23 08:16:00;;;;;;;14.53;14.03;;;;;;;;;;5012769;28;20473;-72
2024/02/23 08:18:28;;;;;;;14.30;13.80;;;;;;;;;;5015155;28;20585;-70
2024/02/23 08:20:55;;;;;;;14.30;13.80;;;;;;;;;;5010094;28;20568;-70
2024/02/23 08:23:22;;;;;;;14.50;14.00;;;;;;;;;;5013057;28;20470;-72
2024/02/23 08:25:50;;;;;;;14.40;13.90;;;;;;;;;;5012362;28;20545;-71
2024/02/23 08:28:18;;;;;;;14.70;14.20;;;;;;;;;;5012526;28;20478;-71
2024/02/23 08:30:46;;;;;;;14.30;13.80;;;;;;;;;;5012479;28;20468;-72
2024/02/23 08:33:13;;;;;;;14.33;13.83;;;;;;;;;;5014619;28;20472;-72
2024/02/23 08:35:40;;;;;;;14.20;13.70;;;;;;;;;;5015013;28;20917;-72
2024/02/23 08:38:07;;;;;;;14.53;14.03;;;;;;;;;;5012739;28;20490;-69
2024/02/23 08:40:36;;;;;;;14.83;14.33;;;;;;;;;;5015860;28;20461;-70
2024/02/23 08:43:03;;;;;;;14.97;14.37;;;;;;;;;;5017333;28;20468;-72
2024/02/23 08:45:32;;;;;;;14.73;14.23;;;;;;;;;;5017620;28;20468;-71
2024/02/23 08:47:59;;;;;;;14.57;14.07;;;;;;;;;;5020029;28;20535;-73
2024/02/23 08:50:27;;;;;;;14.63;14.13;;;;;;;;;;5017643;28;20470;-72
2024/02/23 08:52:55;;;;;;;15.07;14.47;;;;;;;;;;5012227;28;20465;-70
2024/02/23 08:55:22;;;;;;;14.70;14.20;;;;;;;;;;5018141;28;20847;-72
2024/02/23 08:57:49;;;;;;;14.97;14.43;;;;;;;;;;5016430;28;20505;-71
2024/02/23 09:00:17;;;;;;;14.67;14.17;;;;;;;;;;5015397;28;20490;-73
2024/02/23 09:02:45;;;;;;;15.60;15.00;;;;;;;;;;5016861;28;20477;-70
2024/02/23 09:05:12;;;;;;;15.23;14.63;;;;;;;;;;5016941;28;20465;-70
2024/02/23 09:07:40;;;;;;;14.97;14.40;;;;;;;;;;5017182;28;20470;-70
2024/02/23 09:10:07;;;;;;;14.70;14.20;;;;;;;;;;5013824;28;20558;-70
2024/02/23 09:12:35;;;;;;;15.60;15.00;;;;;;;;;;5016098;28;20836;-72
2024/02/23 09:15:02;;;;;;;14.90;14.30;;;;;;;;;;5017634;28;20459;-70
2024/02/23 09:17:30;;;;;;;15.30;14.70;;;;;;;;;;5018335;28;21007;-71
2024/02/23 09:19:58;;;;;;;15.50;14.90;;;;;;;;;;5018120;28;20477;-70
2024/02/23 09:22:26;;;;;;;15.17;14.57;;;;;;;;;;5015346;28;20476;-70
2024/02/23 09:24:53;;;;;;;15.43;14.83;;;;;;;;;;5016597;28;20473;-71
2024/02/23 09:27:22;;;;;;;14.57;14.07;;;;;;;;;;5014961;28;20466;-70
2024/02/23 09:29:49;;;;;;;15.10;14.50;;;;;;;;;;5015342;28;21195;-70
2024/02/23 09:32:17;;;;;;;15.30;14.70;;;;;;;;;;5017623;28;20465;-71
2024/02/23 09:34:44;;;;;;;15.30;14.70;;;;;;;;;;5018021;28;20462;-71
2024/02/23 09:37:12;;;;;;;15.20;14.60;;;;;;;;;;5015032;28;20496;-72
2024/02/23 09:39:39;;;;;;;14.63;14.13;;;;;;;;;;5016607;28;20477;-71
2024/02/23 09:42:09;;;;;;;15.50;14.90;;;;;;;;;;5011500;28;20467;-72
2024/02/23 09:44:37;;;;;;;15.47;14.87;;;;;;;;;;5015532;28;20466;-71
2024/02/23 09:47:08;;;;;;;15.53;14.93;;;;;;;;;;5016964;28;20471;-72
2024/02/23 09:49:35;;;;;;;15.40;14.80;;;;;;;;;;5010783;28;20475;-71
2024/02/23 09:52:03;;;;;;;15.30;14.70;;;;;;;;;;5018419;28;20466;-71
2024/02/23 09:54:32;;;;;;;15.17;14.57;;;;;;;;;;5012477;28;20897;-71
2024/02/23 09:56:59;;;;;;;14.80;14.30;;;;;;;;;;5014340;28;20522;-73
2024/02/23 09:59:28;;;;;;;15.00;14.47;;;;;;;;;;5018196;28;20816;-71
2024/02/23 10:01:55;;;;;;;14.90;14.40;;;;;;;;;;5015346;28;20478;-71
2024/02/23 10:04:22;;;;;;;14.83;14.30;;;;;;;;;;5007510;28;20489;-71
2024/02/23 10:06:49;;;;;;;15.30;14.70;;;;;;;;;;5014662;28;20469;-73
2024/02/23 10:09:17;;;;;;;15.43;14.83;;;;;;;;;;5015716;28;20462;-73
2024/02/23 10:11:46;;;;;;;15.90;15.30;;;;;;;;;;5015688;28;20985;-72
2024/02/23 10:14:13;;;;;;;15.50;14.90;;;;;;;;;;5014904;28;20470;-71
2024/02/23 10:16:41;;;;;;;15.70;15.10;;;;;;;;;;5014839;28;20678;-71
2024/02/23 10:19:08;;;;;;;15.67;15.07;;;;;;;;;;5016073;28;20503;-72
2024/02/23 10:21:35;;;;;;;15.70;15.10;;;;;;;;;;5016917;28;20979;-71
2024/02/23 10:24:02;;;;;;;16.10;15.50;;;;;;;;;;5015561;28;20472;-70
2024/02/23 10:26:29;;;;;;;15.53;14.93;;;;;;;;;;5018022;28;20469;-70
2024/02/23 10:28:58;;;;;;;15.53;14.93;;;;;;;;;;5017274;28;20873;-73
2024/02/23 10:31:27;;;;;;;15.87;15.27;;;;;;;;;;5013223;28;20525;-73
2024/02/23 10:33:56;;;;;;;15.37;14.77;;;;;;;;;;5016019;28;20920;-72
2024/02/23 10:36:23;;;;;;;16.10;15.50;;;;;;;;;;5016642;28;20830;-71
2024/02/23 10:38:53;;;;;;;15.87;15.27;;;;;;;;;;5013631;28;20586;-72
2024/02/23 10:41:21;;;;;;;16.27;15.60;;;;;;;;;;5014870;28;20475;-71
2024/02/23 10:43:49;;;;;;;15.53;14.93;;;;;;;;;;5013383;28;20468;-72
2024/02/23 10:46:17;;;;;;;15.67;15.07;;;;;;;;;;5016038;28;20464;-71
2024/02/23 10:48:45;;;;;;;15.67;15.07;;;;;;;;;;5014646;28;20580;-73
2024/02/23 10:51:14;;;;;;;15.53;14.93;;;;;;;;;;5017110;28;20472;-70
2024/02/23 10:53:41;;;;;;;15.63;15.03;;;;;;;;;;5014159;28;20944;-72
2024/02/23 10:56:09;;;;;;;16.37;15.67;;;;;;;;;;5016194;28;20470;-71
2024/02/23 10:58:36;;;;;;;15.80;15.20;;;;;;;;;;5014714;28;20846;-71
2024/02/23 11:01:05;;;;;;;15.60;15.00;;;;;;;;;;5018487;28;20479;-71
2024/02/23 11:03:34;;;;;;;15.60;15.00;;;;;;;;;;5014281;28;20466;-71
2024/02/23 11:06:01;;;;;;;15.60;15.00;;;;;;;;;;5015923;28;20567;-73
2024/02/23 11:08:29;;;;;;;15.70;15.10;;;;;;;;;;5013577;28;20954;-71
2024/02/23 11:10:57;;;;;;;15.60;15.00;;;;;;;;;;5016969;28;20957;-72
2024/02/23 11:13:32;;;;;;;15.60;15.00;;;;;;;;;;5014972;28;20888;-70
2024/02/23 11:16:03;;;;;;;15.77;15.17;;;;;;;;;;5015834;28;20465;-71
2024/02/23 11:18:32;;;;;;;15.77;15.17;;;;;;;;;;5011632;28;20509;-71
2024/02/23 11:21:02;;;;;;;15.77;15.17;;;;;;;;;;5013816;28;20470;-70
2024/02/23 11:23:40;;;;;;;15.30;14.70;;;;;;;;;;5014193;28;21062;-71
2024/02/23 11:26:08;;;;;;;15.27;14.67;;;;;;;;;;5014833;28;20458;-70
2024/02/23 11:28:35;;;;;;;15.50;14.90;;;;;;;;;;5014445;28;20791;-70
2024/02/23 11:31:02;;;;;;;15.43;14.83;;;;;;;;;;5014453;28;20523;-73
2024/02/23 11:33:30;;;;;;;15.60;15.00;;;;;;;;;;5012177;28;20454;-69
2024/02/23 11:36:09;;;;;;;16.03;15.43;;;;;;;;;;5012603;28;20469;-72
2024/02/23 11:38:36;;;;;;;15.43;14.83;;;;;;;;;;5012969;28;20541;-70
2024/02/23 11:41:04;;;;;;;15.87;15.27;;;;;;;;;;5012480;28;20470;-71
2024/02/23 11:43:35;;;;;;;15.80;15.20;;;;;;;;;;5015488;28;20871;-71
2024/02/23 11:46:02;;;;;;;15.73;15.13;;;;;;;;;;5014081;28;20799;-71
2024/02/23 11:48:30;;;;;;;15.53;14.93;;;;;;;;;;5009946;28;21022;-70
2024/02/23 11:50:58;;;;;;;15.90;15.30;;;;;;;;;;5014878;28;20470;-71
2024/02/23 11:53:27;;;;;;;15.43;14.83;;;;;;;;;;5013110;28;20476;-70
2024/02/23 11:55:55;;;;;;;15.60;15.00;;;;;;;;;;5010314;28;20566;-70
2024/02/23 11:58:22;;;;;;;15.80;15.20;;;;;;;;;;5012078;28;20488;-68
2024/02/23 12:00:49;;;;;;;15.73;15.13;;;;;;;;;;5013473;28;20494;-69
2024/02/23 12:03:17;;;;;;;15.67;15.07;;;;;;;;;;5011782;28;20459;-71
2024/02/23 12:05:45;;;;;;;16.20;15.50;;;;;;;;;;5010155;28;20535;-69
2024/02/23 12:08:12;;;;;;;15.63;15.03;;;;;;;;;;5013475;28;20473;-71
2024/02/23 12:10:40;;;;;;;15.70;15.10;;;;;;;;;;5012330;28;20554;-71
2024/02/23 12:13:08;;;;;;;15.93;15.33;;;;;;;;;;5010988;28;20459;-69
2024/02/23 12:15:35;;;;;;;15.77;15.17;;;;;;;;;;5010349;28;20464;-68
2024/02/23 12:18:02;;;;;;;15.87;15.27;;;;;;;;;;5010710;28;20555;-68
2024/02/23 12:20:29;;;;;;;15.43;14.83;;;;;;;;;;5008862;28;20469;-69
2024/02/23 12:22:57;;;;;;;15.60;15.00;;;;;;;;;;5011499;28;20470;-69
2024/02/23 12:25:24;;;;;;;15.60;15.00;;;;;;;;;;5013368;28;20611;-70
2024/02/23 12:27:57;;;;;;;15.57;14.97;;;;;;;;;;5010664;28;20476;-70
2024/02/23 12:30:26;;;;;;;15.67;15.07;;;;;;;;;;5012249;28;20840;-69
2024/02/23 12:33:04;;;;;;;16.40;15.70;;;;;;;;;;5010113;28;20559;-69
2024/02/23 12:35:31;;;;;;;16.53;15.83;;;;;;;;;;5014078;28;20500;-69
2024/02/23 12:37:59;;;;;;;16.50;15.80;;;;;;;;;;5012270;28;20576;-72
2024/02/23 12:40:27;;;;;;;16.03;15.43;;;;;;;;;;5014358;28;20470;-72
2024/02/23 12:42:54;;;;;;;16.70;16.00;;;;;;;;;;5012777;28;20474;-70
2024/02/23 12:45:23;;;;;;;15.70;15.10;;;;;;;;;;5014657;28;20470;-72
2024/02/23 12:47:50;;;;;;;15.93;15.33;;;;;;;;;;5011648;28;20882;-70
2024/02/23 12:50:17;;;;;;;16.00;15.40;;;;;;;;;;5012871;28;20459;-70
2024/02/23 12:52:45;;;;;;;16.80;16.10;;;;;;;;;;5011808;28;20457;-70
2024/02/23 12:55:13;;;;;;;15.57;14.97;;;;;;;;;;5008893;28;20579;-72
2024/02/23 12:57:40;;;;;;;16.20;15.60;;;;;;;;;;5010403;28;20472;-70
2024/02/23 13:00:08;;;;;;;16.20;15.60;;;;;;;;;;5010207;28;20807;-70
2024/02/23 13:02:36;;;;;;;15.90;15.30;;;;;;;;;;5012259;28;20666;-69
2024/02/23 13:05:04;;;;;;;15.97;15.37;;;;;;;;;;5010158;28;20478;-72
2024/02/23 13:07:31;;;;;;;15.90;15.30;;;;;;;;;;5013806;28;20939;-68
2024/02/23 13:09:58;;;;;;;16.13;15.53;;;;;;;;;;5011711;28;20468;-71
2024/02/23 13:12:25;;;;;;;16.17;15.57;;;;;;;;;;5011512;28;20466;-72
2024/02/23 13:14:52;;;;;;;15.77;15.17;;;;;;;;;;5013484;28;20564;-70
2024/02/23 13:17:19;;;;;;;16.23;15.53;;;;;;;;;;5015911;28;20573;-70
2024/02/23 13:19:48;;;;;;;16.67;15.97;;;;;;;;;;5015750;28;21037;-71
2024/02/23 13:22:15;;;;;;;15.90;15.30;;;;;;;;;;5015361;28;20472;-71
2024/02/23 13:24:42;;;;;;;16.50;15.80;;;;;;;;;;5015696;28;20826;-70
2024/02/23 13:27:08;;;;;;;16.50;15.80;;;;;;;;;;5017157;28;20470;-70
2024/02/23 13:29:35;;;;;;;15.90;15.30;;;;;;;;;;5013332;28;20463;-70
2024/02/23 13:32:03;;;;;;;15.60;15.00;;;;;;;;;;5018136;28;20475;-72
2024/02/23 13:34:31;;;;;;;15.93;15.33;;;;;;;;;;5017996;28;20471;-70
2024/02/23 13:36:59;;;;;;;15.80;15.20;;;;;;;;;;5015344;28;20472;-70
2024/02/23 13:39:26;;;;;;;15.40;14.80;;;;;;;;;;5015666;28;20490;-70
2024/02/23 13:41:53;;;;;;;15.57;14.97;;;;;;;;;;5015306;28;20514;-71
2024/02/23 13:44:22;;;;;;;15.77;15.17;;;;;;;;;;5017842;28;20548;-71
2024/02/23 13:46:49;;;;;;;15.63;15.03;;;;;;;;;;5019562;28;20471;-70
2024/02/23 13:49:17;;;;;;;15.80;15.20;;;;;;;;;;5016317;28;20822;-68
2024/02/23 13:51:44;;;;;;;15.73;15.13;;;;;;;;;;5013775;28;20476;-70
2024/02/23 13:54:12;;;;;;;16.33;15.73;;;;;;;;;;5013504;28;20474;-70
2024/02/23 13:56:40;;;;;;;15.87;15.27;;;;;;;;;;5014484;28;20473;-69
2024/02/23 13:59:07;;;;;;;16.10;15.50;;;;;;;;;;5015315;28;21033;-71
2024/02/23 14:01:34;;;;;;;15.77;15.17;;;;;;;;;;5016675;28;20485;-72
2024/02/23 14:04:01;;;;;;;16.23;15.63;;;;;;;;;;5014803;28;20480;-70
2024/02/23 14:06:28;;;;;;;15.60;15.00;;;;;;;;;;5016193;28;21041;-69
2024/02/23 14:08:55;;;;;;;15.60;15.00;;;;;;;;;;5017082;28;21373;-70
2024/02/23 14:11:24;;;;;;;16.30;15.70;;;;;;;;;;5018484;28;20472;-70
2024/02/23 14:13:52;;;;;;;15.43;14.83;;;;;;;;;;5012287;28;21076;-70
2024/02/23 14:16:19;;;;;;;15.60;15.00;;;;;;;;;;5018411;28;20673;-69
2024/02/23 14:18:47;;;;;;;15.30;14.70;;;;;;;;;;5016365;28;20495;-71